Terminal Aerodrome Forecast
Issued by NWS Shreveport, LA

Home | Current Version | Previous Version | Text Only | Print | Product List | Glossary On
Versions: 1 2 3 4 5 6 7 8 9 10 11 12 13 14 15 16 17 18 19 20 21 22 23
000
FTUS44 KSHV 270555
TAFLFK
TAF
KLFK 270555Z 2706/2806 VRB03KT P6SM BKN250
     FM270800 20005KT 4SM BR OVC014
      TEMPO 2708/2712 2SM -TSRA BR OVC007CB
     FM271500 17009KT P6SM BKN014
     FM271700 15011KT P6SM BKN025
     FM271900 15004KT P6SM BKN035=

USA.gov is the U.S. government's official web portal to all federal, state and local government web resources and services.